createdAt,value
2017-06-24T00:00:51.596Z,0
2017-06-24T00:02:00.829Z,0
2017-06-24T00:03:09.721Z,0
2017-06-24T00:04:18.932Z,0
2017-06-24T00:05:28.402Z,0
2017-06-24T00:06:37.616Z,0
2017-06-24T00:07:46.504Z,0
2017-06-24T00:08:56.366Z,0
2017-06-24T00:10:05.252Z,0
2017-06-24T00:11:14.240Z,0
2017-06-24T00:12:23.127Z,0
2017-06-24T00:13:32.017Z,0
2017-06-24T00:14:40.912Z,0
2017-06-24T00:15:49.834Z,0
2017-06-24T00:16:58.882Z,0
2017-06-24T00:18:07.773Z,0
2017-06-24T00:19:17.635Z,0
2017-06-24T00:20:26.525Z,0
2017-06-24T00:21:35.418Z,0
2017-06-24T00:22:44.730Z,0
2017-06-24T00:23:53.946Z,0
2017-06-24T00:25:02.840Z,0
2017-06-24T00:26:11.735Z,0
2017-06-24T00:27:20.950Z,0
2017-06-24T00:28:29.841Z,0
2017-06-24T00:29:38.736Z,0
2017-06-24T00:30:47.626Z,0
2017-06-24T00:31:56.841Z,0
2017-06-24T00:33:06.052Z,0
2017-06-24T00:34:15.089Z,0
2017-06-24T00:35:23.973Z,0
2017-06-24T00:36:33.188Z,0
2017-06-24T00:37:42.400Z,0
2017-06-24T00:38:51.291Z,0
2017-06-24T00:40:00.653Z,0
2017-06-24T00:41:09.873Z,0
2017-06-24T00:42:18.764Z,0
2017-06-24T00:43:27.977Z,0
2017-06-24T00:44:36.867Z,0
2017-06-24T00:45:46.820Z,0
2017-06-24T00:46:56.182Z,0
2017-06-24T00:48:05.395Z,0
2017-06-24T00:49:14.284Z,0
2017-06-24T00:50:23.176Z,0
2017-06-24T00:51:32.115Z,0
2017-06-24T00:52:41.333Z,0
2017-06-24T00:53:50.547Z,0
2017-06-24T00:54:59.435Z,0
2017-06-24T00:56:08.656Z,0
2017-06-24T00:57:18.025Z,0
2017-06-24T00:58:26.914Z,0
2017-06-24T00:59:35.797Z,0
2017-06-24T01:00:44.685Z,0
2017-06-24T01:01:53.900Z,0
2017-06-24T01:03:02.790Z,0
2017-06-24T01:04:12.006Z,0
2017-06-24T01:05:53.269Z,0
2017-06-24T01:07:02.158Z,0
2017-06-24T01:08:11.748Z,0
2017-06-24T01:09:20.636Z,0
2017-06-24T01:10:29.525Z,0
2017-06-24T01:11:38.415Z,0
2017-06-24T01:12:47.308Z,0
2017-06-24T01:13:56.396Z,0
2017-06-24T01:15:05.286Z,0
2017-06-24T01:16:14.178Z,0
2017-06-24T01:17:23.070Z,0
2017-06-24T01:18:31.959Z,0
2017-06-24T01:19:41.274Z,0
2017-06-24T01:20:50.484Z,0
2017-06-24T01:21:59.372Z,0
2017-06-24T01:23:08.589Z,0
2017-06-24T01:24:17.801Z,0
2017-06-24T01:25:27.118Z,0
2017-06-24T01:26:36.332Z,0
2017-06-24T01:27:45.547Z,0
2017-06-24T01:28:54.433Z,0
2017-06-24T01:30:03.320Z,0
2017-06-24T01:31:12.587Z,0
2017-06-24T01:32:21.475Z,0
2017-06-24T01:33:30.363Z,0
2017-06-24T01:34:39.253Z,0
2017-06-24T01:35:48.465Z,0
2017-06-24T01:36:57.930Z,0
2017-06-24T01:38:06.822Z,0
2017-06-24T01:39:15.711Z,0
2017-06-24T01:40:24.927Z,0
2017-06-24T01:41:33.811Z,0
2017-06-24T01:42:43.403Z,0
2017-06-24T01:43:52.291Z,0
2017-06-24T01:45:01.501Z,0
2017-06-24T01:46:10.393Z,0
2017-06-24T01:47:19.616Z,0
2017-06-24T01:48:28.806Z,0
2017-06-24T01:49:37.696Z,0
2017-06-24T01:50:46.622Z,0
2017-06-24T01:51:55.838Z,0
2017-06-24T01:53:05.053Z,0
2017-06-24T01:54:14.040Z,0
2017-06-24T01:55:22.929Z,0
2017-06-24T01:56:32.145Z,0
2017-06-24T01:57:41.031Z,0
2017-06-24T01:58:50.241Z,0
2017-06-24T01:59:59.440Z,0
2017-06-24T02:01:08.976Z,0
2017-06-24T02:02:18.185Z,0
2017-06-24T02:03:27.073Z,0
2017-06-24T02:04:35.962Z,0
2017-06-24T02:05:45.003Z,0
2017-06-24T02:06:53.891Z,0
2017-06-24T02:08:02.783Z,0
2017-06-24T02:09:11.673Z,0
2017-06-24T02:10:20.945Z,0
2017-06-24T02:11:29.984Z,0
2017-06-24T02:12:38.875Z,0
2017-06-24T02:13:48.090Z,0
2017-06-24T02:14:56.980Z,0
2017-06-24T02:16:06.219Z,0
2017-06-24T02:17:15.355Z,0
2017-06-24T02:18:24.245Z,0
2017-06-24T02:19:33.132Z,0
2017-06-24T02:20:42.346Z,0
2017-06-24T02:21:51.562Z,0
2017-06-24T02:23:00.774Z,0
2017-06-24T02:24:09.669Z,0
2017-06-24T02:25:18.881Z,0
2017-06-24T02:26:27.772Z,0
2017-06-24T02:27:36.664Z,0
2017-06-24T02:28:45.700Z,0
2017-06-24T02:29:54.588Z,0
2017-06-24T02:31:03.480Z,0
2017-06-24T02:32:12.699Z,4
2017-06-24T02:33:21.589Z,4
2017-06-24T02:34:31.280Z,4
2017-06-24T02:35:41.140Z,0
2017-06-24T02:36:50.355Z,4
2017-06-24T02:37:59.567Z,4
2017-06-24T02:39:08.784Z,4
2017-06-24T02:40:18.622Z,4
2017-06-24T02:41:27.513Z,4
2017-06-24T02:42:37.050Z,8
2017-06-24T02:43:46.595Z,4
2017-06-24T02:44:55.489Z,8
2017-06-24T02:46:04.702Z,8
2017-06-24T02:47:13.593Z,8
2017-06-24T02:48:22.483Z,8
2017-06-24T02:49:31.369Z,12
2017-06-24T02:50:40.587Z,8
2017-06-24T02:51:50.136Z,8
2017-06-24T02:52:59.030Z,8
2017-06-24T02:54:08.247Z,12
2017-06-24T02:55:17.138Z,12
2017-06-24T02:56:26.676Z,12
2017-06-24T02:57:35.716Z,16
2017-06-24T02:58:44.609Z,16
2017-06-24T02:59:53.823Z,20
2017-06-24T03:01:02.711Z,24
2017-06-24T03:02:11.921Z,20
2017-06-24T03:03:21.612Z,20
2017-06-24T03:04:30.827Z,24
2017-06-24T03:05:40.049Z,20
2017-06-24T03:06:48.934Z,20
2017-06-24T03:07:57.820Z,28
2017-06-24T03:09:07.435Z,24
2017-06-24T03:10:16.648Z,24
2017-06-24T03:11:25.543Z,20
2017-06-24T03:12:34.432Z,20
2017-06-24T03:13:43.646Z,24
2017-06-24T03:14:52.588Z,24
2017-06-24T03:16:01.481Z,28
2017-06-24T03:17:10.700Z,36
2017-06-24T03:18:19.598Z,36
2017-06-24T03:19:28.809Z,32
2017-06-24T03:20:37.746Z,36
2017-06-24T03:21:46.967Z,40
2017-06-24T03:22:56.186Z,44
2017-06-24T03:24:05.735Z,48
2017-06-24T03:25:14.626Z,52
2017-06-24T03:26:23.665Z,52
2017-06-24T03:27:32.554Z,52
2017-06-24T03:28:41.441Z,40
2017-06-24T03:29:50.666Z,48
2017-06-24T03:30:59.555Z,56
2017-06-24T03:32:08.768Z,64
2017-06-24T03:33:17.658Z,72
2017-06-24T03:34:26.547Z,80
2017-06-24T03:35:35.438Z,68
2017-06-24T03:36:44.331Z,84
2017-06-24T03:37:53.367Z,100
2017-06-24T03:39:02.257Z,100
2017-06-24T03:40:11.144Z,124
2017-06-24T03:41:20.038Z,124
2017-06-24T03:42:29.251Z,116
2017-06-24T03:43:38.517Z,112
2017-06-24T03:44:47.732Z,100
2017-06-24T03:45:56.628Z,108
2017-06-24T03:47:05.870Z,116
2017-06-24T03:48:14.759Z,108
2017-06-24T03:49:24.071Z,96
2017-06-24T03:50:33.288Z,108
2017-06-24T03:51:42.177Z,120
2017-06-24T03:52:51.069Z,120
2017-06-24T03:53:59.957Z,100
2017-06-24T03:55:09.474Z,104
2017-06-24T03:56:18.684Z,112
2017-06-24T03:57:27.897Z,120
2017-06-24T03:58:37.435Z,136
2017-06-24T03:59:46.663Z,168
2017-06-24T04:00:55.708Z,156
2017-06-24T04:02:04.925Z,180
2017-06-24T04:03:14.139Z,196
2017-06-24T04:04:23.031Z,176
2017-06-24T04:05:31.918Z,164
2017-06-24T04:06:40.906Z,136
2017-06-24T04:07:49.796Z,148
2017-06-24T04:08:58.684Z,144
2017-06-24T04:10:07.899Z,136
2017-06-24T04:11:16.788Z,172
2017-06-24T04:12:26.060Z,184
2017-06-24T04:13:34.951Z,192
2017-06-24T04:14:43.841Z,212
2017-06-24T04:15:53.055Z,240
2017-06-24T04:17:01.947Z,256
2017-06-24T04:18:10.986Z,256
2017-06-24T04:19:19.872Z,276
2017-06-24T04:20:28.762Z,320
2017-06-24T04:21:37.977Z,320
2017-06-24T04:22:46.887Z,356
2017-06-24T04:23:55.931Z,392
2017-06-24T04:25:04.820Z,316
2017-06-24T04:26:14.034Z,300
2017-06-24T04:27:22.921Z,260
2017-06-24T04:28:31.810Z,220
2017-06-24T04:29:40.848Z,232
2017-06-24T04:30:49.739Z,240
2017-06-24T04:31:58.958Z,264
2017-06-24T04:33:08.496Z,260
2017-06-24T04:34:17.385Z,252
2017-06-24T04:35:26.326Z,268
2017-06-24T04:36:35.214Z,304
2017-06-24T04:37:44.754Z,340
2017-06-24T04:38:53.647Z,384
2017-06-24T04:40:03.182Z,384
2017-06-24T04:41:12.775Z,348
2017-06-24T04:42:21.671Z,308
2017-06-24T04:43:30.566Z,344
2017-06-24T04:44:39.459Z,340
2017-06-24T04:45:48.675Z,380
2017-06-24T04:46:57.563Z,436
2017-06-24T04:48:06.555Z,400
2017-06-24T04:49:15.765Z,380
2017-06-24T04:50:24.658Z,412
2017-06-24T04:51:33.547Z,360
2017-06-24T04:52:42.867Z,444
2017-06-24T04:53:52.086Z,412
2017-06-24T04:55:00.977Z,444
2017-06-24T04:56:09.872Z,444
2017-06-24T04:57:18.767Z,448
2017-06-24T04:58:27.978Z,340
2017-06-24T04:59:36.866Z,280
2017-06-24T05:00:46.081Z,224
2017-06-24T05:01:55.298Z,252
2017-06-24T05:03:04.533Z,268
2017-06-24T05:04:13.424Z,228
2017-06-24T05:05:22.664Z,300
2017-06-24T05:06:31.877Z,320
2017-06-24T05:07:40.765Z,288
2017-06-24T05:08:49.654Z,252
2017-06-24T05:09:59.172Z,264
2017-06-24T05:11:08.063Z,268
2017-06-24T05:12:17.276Z,336
2017-06-24T05:13:26.163Z,344
2017-06-24T05:14:35.055Z,388
2017-06-24T05:15:44.048Z,412
2017-06-24T05:16:53.270Z,372
2017-06-24T05:18:02.484Z,340
2017-06-24T05:19:11.377Z,360
2017-06-24T05:20:20.268Z,436
2017-06-24T05:21:29.211Z,616
2017-06-24T05:22:38.096Z,540
2017-06-24T05:23:46.985Z,412
2017-06-24T05:24:55.874Z,372
2017-06-24T05:26:04.766Z,480
2017-06-24T05:27:13.661Z,440
2017-06-24T05:28:22.571Z,500
2017-06-24T05:29:31.469Z,528
2017-06-24T05:30:41.011Z,632
2017-06-24T05:31:49.904Z,656
2017-06-24T05:32:59.268Z,636
2017-06-24T05:34:08.154Z,644
2017-06-24T05:35:17.049Z,628
2017-06-24T05:36:25.942Z,680
2017-06-24T05:37:35.158Z,612
2017-06-24T05:38:44.051Z,736
2017-06-24T05:39:53.263Z,740
2017-06-24T05:41:02.156Z,684
2017-06-24T05:42:11.369Z,596
2017-06-24T05:43:20.584Z,612
2017-06-24T05:44:29.951Z,664
2017-06-24T05:45:39.168Z,676
2017-06-24T05:46:48.381Z,860
2017-06-24T05:47:57.595Z,836
2017-06-24T05:49:06.488Z,788
2017-06-24T05:50:15.477Z,1040
2017-06-24T05:51:24.365Z,952
2017-06-24T05:52:33.256Z,732
2017-06-24T05:53:42.468Z,748
2017-06-24T05:54:51.693Z,732
2017-06-24T05:56:00.610Z,864
2017-06-24T05:57:09.497Z,1076
2017-06-24T05:58:18.384Z,1084
2017-06-24T05:59:27.598Z,996
2017-06-24T06:00:36.494Z,892
2017-06-24T06:01:45.380Z,920
2017-06-24T06:02:54.920Z,920
2017-06-24T06:04:04.153Z,780
2017-06-24T06:05:13.697Z,728
2017-06-24T06:06:23.250Z,760
2017-06-24T06:07:32.292Z,760
2017-06-24T06:08:41.183Z,788
2017-06-24T06:09:50.407Z,772
2017-06-24T06:10:59.294Z,804
2017-06-24T06:12:08.514Z,876
2017-06-24T06:13:18.101Z,936
2017-06-24T06:14:26.987Z,896
2017-06-24T06:15:35.874Z,780
2017-06-24T06:16:44.765Z,872
2017-06-24T06:17:53.662Z,928
2017-06-24T06:19:03.031Z,968
2017-06-24T06:20:12.578Z,972
2017-06-24T06:21:21.464Z,1028
2017-06-24T06:22:30.364Z,880
2017-06-24T06:23:39.576Z,1032
2017-06-24T06:24:48.766Z,840
2017-06-24T06:25:57.656Z,984
2017-06-24T06:27:06.550Z,1196
2017-06-24T06:28:15.768Z,860
2017-06-24T06:29:24.981Z,936
2017-06-24T06:30:34.069Z,1096
2017-06-24T06:31:42.958Z,1180
2017-06-24T06:32:52.176Z,1072
2017-06-24T06:34:01.066Z,764
2017-06-24T06:35:10.278Z,952
2017-06-24T06:36:20.115Z,748
2017-06-24T06:37:29.331Z,824
2017-06-24T06:38:38.223Z,748
2017-06-24T06:39:47.113Z,1356
2017-06-24T06:40:56.001Z,1424
2017-06-24T06:42:04.945Z,904
2017-06-24T06:43:13.837Z,828
2017-06-24T06:44:23.056Z,836
2017-06-24T06:45:31.945Z,812
2017-06-24T06:46:41.157Z,828
2017-06-24T06:47:50.522Z,920
2017-06-24T06:48:59.415Z,948
2017-06-24T06:50:08.305Z,916
2017-06-24T06:51:17.842Z,1080
2017-06-24T06:52:26.730Z,916
2017-06-24T06:53:35.768Z,1100
2017-06-24T06:54:44.668Z,1024
2017-06-24T06:55:53.558Z,1080
2017-06-24T06:57:02.448Z,1884
2017-06-24T06:58:11.341Z,1488
2017-06-24T06:59:20.240Z,1024
2017-06-24T07:00:29.125Z,1068
2017-06-24T07:01:38.010Z,1356
2017-06-24T07:02:46.898Z,1396
2017-06-24T07:03:55.783Z,1780
2017-06-24T07:05:04.826Z,1600
2017-06-24T07:06:13.718Z,1528
2017-06-24T07:07:22.618Z,1684
2017-06-24T07:08:31.511Z,1696
2017-06-24T07:09:40.403Z,1684
2017-06-24T07:10:49.446Z,2072
2017-06-24T07:11:58.661Z,2368
2017-06-24T07:13:07.874Z,2532
2017-06-24T07:14:17.091Z,2248
2017-06-24T07:15:25.984Z,2644
2017-06-24T07:16:35.773Z,2292
2017-06-24T07:17:44.659Z,2092
2017-06-24T07:18:53.553Z,2284
2017-06-24T07:20:02.451Z,2416
2017-06-24T07:21:11.664Z,2724
2017-06-24T07:22:21.353Z,2628
2017-06-24T07:23:30.574Z,2532
2017-06-24T07:24:39.465Z,2608
2017-06-24T07:25:48.361Z,2492
2017-06-24T07:26:57.581Z,2476
2017-06-24T07:28:06.796Z,2684
2017-06-24T07:29:16.010Z,2772
2017-06-24T07:30:24.898Z,2836
2017-06-24T07:31:33.799Z,2876
2017-06-24T07:32:42.703Z,2932
2017-06-24T07:33:51.741Z,2900
2017-06-24T07:35:00.954Z,2624
2017-06-24T07:36:09.902Z,2384
2017-06-24T07:37:18.794Z,2804
2017-06-24T07:38:27.683Z,3044
2017-06-24T07:39:37.047Z,3236
2017-06-24T07:40:46.259Z,3464
2017-06-24T07:41:55.475Z,3604
2017-06-24T07:43:05.017Z,3764
2017-06-24T07:44:14.230Z,4012
2017-06-24T07:45:23.417Z,5184
2017-06-24T07:46:32.307Z,5696
2017-06-24T07:47:41.200Z,5304
2017-06-24T07:48:50.092Z,4500
2017-06-24T07:49:59.302Z,3696
2017-06-24T07:51:08.671Z,3936
2017-06-24T07:52:18.230Z,5028
2017-06-24T07:53:27.451Z,4304
2017-06-24T07:54:36.344Z,2924
2017-06-24T07:55:45.558Z,2688
2017-06-24T07:56:54.923Z,2816
2017-06-24T07:58:04.144Z,3108
2017-06-24T07:59:13.034Z,4152
2017-06-24T08:00:21.926Z,3328
2017-06-24T08:01:31.467Z,3040
2017-06-24T08:02:40.406Z,3712
2017-06-24T08:03:49.621Z,4168
2017-06-24T08:04:58.510Z,3356
2017-06-24T08:06:07.405Z,4408
2017-06-24T08:07:16.640Z,4348
2017-06-24T08:08:26.258Z,4312
2017-06-24T08:09:35.146Z,4028
2017-06-24T08:10:44.033Z,3308
2017-06-24T08:11:53.249Z,2972
2017-06-24T08:13:02.142Z,2972
2017-06-24T08:14:11.517Z,3868
2017-06-24T08:15:20.403Z,4252
2017-06-24T08:16:29.293Z,3616
2017-06-24T08:17:38.510Z,3008
2017-06-24T08:18:47.400Z,3104
2017-06-24T08:19:56.440Z,3412
2017-06-24T08:21:05.335Z,4468
2017-06-24T08:22:14.551Z,4680
2017-06-24T08:23:23.769Z,4404
2017-06-24T08:24:32.985Z,4704
2017-06-24T08:25:42.175Z,4080
2017-06-24T08:26:51.065Z,3940
2017-06-24T08:27:59.949Z,4680
2017-06-24T08:29:08.839Z,4936
2017-06-24T08:30:17.731Z,5644
2017-06-24T08:31:27.281Z,4572
2017-06-24T08:32:36.502Z,3588
2017-06-24T08:33:45.713Z,3072
2017-06-24T08:34:54.606Z,2980
2017-06-24T08:36:03.845Z,3468
2017-06-24T08:37:13.215Z,2880
2017-06-24T08:38:23.085Z,4200
2017-06-24T08:39:32.301Z,4288
2017-06-24T08:40:41.190Z,3268
2017-06-24T08:41:50.409Z,3012
2017-06-24T08:42:59.350Z,2320
2017-06-24T08:44:08.242Z,2856
2017-06-24T08:45:17.129Z,3224
2017-06-24T08:46:26.026Z,2888
2017-06-24T08:47:35.244Z,2444
2017-06-24T08:48:44.185Z,2580
2017-06-24T08:49:53.074Z,2800
2017-06-24T08:51:02.292Z,2064
2017-06-24T08:52:11.510Z,3288
2017-06-24T08:53:20.726Z,2748
2017-06-24T08:54:30.045Z,2944
2017-06-24T08:55:38.934Z,3376
2017-06-24T08:56:48.146Z,4120
2017-06-24T08:57:57.041Z,3736
2017-06-24T08:59:05.939Z,3700
2017-06-24T09:00:15.322Z,4224
2017-06-24T09:01:24.212Z,4772
2017-06-24T09:02:33.101Z,5468
2017-06-24T09:03:41.987Z,4532
2017-06-24T09:04:50.879Z,3540
2017-06-24T09:06:00.019Z,2604
2017-06-24T09:07:09.243Z,3952
2017-06-24T09:08:18.467Z,3816
2017-06-24T09:09:27.687Z,4604
2017-06-24T09:10:36.573Z,4756
2017-06-24T09:11:45.510Z,2932
2017-06-24T09:12:55.044Z,4496
2017-06-24T09:14:03.937Z,2544
2017-06-24T09:15:12.833Z,3812
2017-06-24T09:16:21.734Z,3528
2017-06-24T09:17:32.075Z,3024
2017-06-24T09:18:40.965Z,3612
2017-06-24T09:19:50.176Z,3996
2017-06-24T09:20:59.067Z,4476
2017-06-24T09:22:07.957Z,6628
2017-06-24T09:23:17.181Z,7232
2017-06-24T09:24:26.071Z,5264
2017-06-24T09:25:34.965Z,5228
2017-06-24T09:26:43.860Z,5116
2017-06-24T09:27:53.075Z,4584
2017-06-24T09:29:02.064Z,4384
2017-06-24T09:30:11.611Z,6416
2017-06-24T09:31:20.500Z,4688
2017-06-24T09:32:29.719Z,3516
2017-06-24T09:33:38.604Z,5096
2017-06-24T09:34:47.590Z,3256
2017-06-24T09:35:56.486Z,5044
2017-06-24T09:37:05.704Z,3580
2017-06-24T09:38:14.598Z,3392
2017-06-24T09:39:23.812Z,2984
2017-06-24T09:40:32.855Z,3616
2017-06-24T09:41:41.756Z,2504
2017-06-24T09:42:50.968Z,2536
2017-06-24T09:44:00.178Z,2628
2017-06-24T09:45:09.069Z,2764
2017-06-24T09:46:18.387Z,3364
2017-06-24T09:47:27.602Z,2820
2017-06-24T09:48:36.496Z,3128
2017-06-24T09:49:45.390Z,2864
2017-06-24T09:50:54.285Z,2972
2017-06-24T09:52:03.228Z,2220
2017-06-24T09:53:12.437Z,2756
2017-06-24T09:54:21.323Z,3428
2017-06-24T09:55:30.857Z,3236
2017-06-24T09:56:40.071Z,6236
2017-06-24T09:57:49.339Z,3296
2017-06-24T09:58:58.556Z,3372
2017-06-24T10:00:07.450Z,4564
2017-06-24T10:01:16.337Z,5084
2017-06-24T10:02:25.554Z,4628
2017-06-24T10:03:34.494Z,4640
2017-06-24T10:04:43.384Z,4792
2017-06-24T10:05:52.605Z,3984
2017-06-24T10:07:01.824Z,3016
2017-06-24T10:08:10.719Z,3132
2017-06-24T10:09:19.910Z,4000
2017-06-24T10:10:28.803Z,4224
2017-06-24T10:11:38.021Z,3724
2017-06-24T10:12:47.241Z,2928
2017-06-24T10:13:56.464Z,3156
2017-06-24T10:15:05.830Z,3644
2017-06-24T10:16:14.722Z,3268
2017-06-24T10:17:23.613Z,4400
2017-06-24T10:18:32.847Z,4756
2017-06-24T10:19:41.733Z,3924
2017-06-24T10:20:50.720Z,3776
2017-06-24T10:21:59.612Z,4100
2017-06-24T10:23:09.482Z,3192
2017-06-24T10:24:18.697Z,3448
2017-06-24T10:25:27.594Z,3704
2017-06-24T10:26:36.959Z,4688
2017-06-24T10:27:46.175Z,4260
2017-06-24T10:28:55.390Z,3888
2017-06-24T10:30:04.278Z,3656
2017-06-24T10:31:13.494Z,3512
2017-06-24T10:32:23.009Z,2900
2017-06-24T10:33:31.909Z,3620
2017-06-24T10:34:41.122Z,2952
2017-06-24T10:35:50.015Z,2736
2017-06-24T10:36:58.909Z,2740
2017-06-24T10:38:07.951Z,2776
2017-06-24T10:39:16.839Z,2892
2017-06-24T10:40:26.054Z,3576
2017-06-24T10:41:34.948Z,2732
2017-06-24T10:42:43.840Z,2772
2017-06-24T10:43:52.884Z,4144
2017-06-24T10:45:02.422Z,3324
2017-06-24T10:46:11.317Z,3324
2017-06-24T10:47:20.534Z,2524
2017-06-24T10:48:30.077Z,2840
2017-06-24T10:49:39.019Z,2732
2017-06-24T10:50:47.909Z,2328
2017-06-24T10:51:56.802Z,2120
2017-06-24T10:53:06.023Z,2172
2017-06-24T10:54:14.918Z,2284
2017-06-24T10:55:23.958Z,2716
2017-06-24T10:56:32.848Z,2524
2017-06-24T10:57:42.065Z,2532
2017-06-24T10:58:51.281Z,2840
2017-06-24T11:00:00.502Z,3572
2017-06-24T11:01:09.871Z,3040
2017-06-24T11:02:19.088Z,2596
2017-06-24T11:03:28.635Z,2968
2017-06-24T11:04:37.846Z,3664
2017-06-24T11:05:46.739Z,3596
2017-06-24T11:06:55.678Z,3244
2017-06-24T11:08:04.895Z,2896
2017-06-24T11:09:14.111Z,3336
2017-06-24T11:10:23.333Z,2772
2017-06-24T11:11:32.555Z,2260
2017-06-24T11:12:41.922Z,2732
2017-06-24T11:13:51.147Z,3888
2017-06-24T11:15:00.363Z,3320
2017-06-24T11:16:09.579Z,3548
2017-06-24T11:17:18.466Z,3976
2017-06-24T11:18:27.405Z,3600
2017-06-24T11:19:36.301Z,3088
2017-06-24T11:20:45.195Z,3220
2017-06-24T11:21:54.411Z,2744
2017-06-24T11:23:03.305Z,3288
2017-06-24T11:24:12.721Z,3256
2017-06-24T11:25:21.619Z,2400
2017-06-24T11:26:30.511Z,2684
2017-06-24T11:27:39.406Z,4740
2017-06-24T11:28:48.618Z,3932
2017-06-24T11:29:57.654Z,4336
2017-06-24T11:31:06.540Z,3912
2017-06-24T11:32:15.434Z,4096
2017-06-24T11:33:24.327Z,3960
2017-06-24T11:34:33.216Z,4468
2017-06-24T11:35:42.906Z,3900
2017-06-24T11:36:51.801Z,5344
2017-06-24T11:38:01.018Z,6416
2017-06-24T11:39:09.909Z,5068
2017-06-24T11:40:18.801Z,3212
2017-06-24T11:41:28.117Z,4304
2017-06-24T11:42:37.011Z,3588
2017-06-24T11:43:45.931Z,3172
2017-06-24T11:44:54.820Z,3180
2017-06-24T11:46:03.712Z,2988
2017-06-24T11:47:12.759Z,3072
2017-06-24T11:48:21.655Z,2728
2017-06-24T11:49:30.546Z,2620
2017-06-24T11:50:39.437Z,2568
2017-06-24T11:51:48.329Z,2092
2017-06-24T11:52:57.694Z,2512
2017-06-24T11:54:07.236Z,2952
2017-06-24T11:55:16.129Z,2376
2017-06-24T11:56:25.346Z,2272
2017-06-24T11:57:34.239Z,3020
2017-06-24T11:58:43.430Z,3752
2017-06-24T11:59:52.967Z,5260
2017-06-24T12:01:02.183Z,6940
2017-06-24T12:02:11.400Z,4556
2017-06-24T12:03:20.297Z,3488
2017-06-24T12:04:29.658Z,3640
2017-06-24T12:05:38.553Z,2956
2017-06-24T12:06:47.447Z,3720
2017-06-24T12:07:56.335Z,3976
2017-06-24T12:09:05.547Z,4636
2017-06-24T12:10:14.692Z,5380
2017-06-24T12:11:23.913Z,5180
2017-06-24T12:12:32.803Z,4744
2017-06-24T12:13:42.015Z,3168
2017-06-24T12:14:51.237Z,3904
2017-06-24T12:16:00.233Z,3228
2017-06-24T12:17:09.451Z,3448
2017-06-24T12:18:18.342Z,5700
2017-06-24T12:19:27.239Z,6104
2017-06-24T12:20:36.130Z,5624
2017-06-24T12:21:45.177Z,5960
2017-06-24T12:22:54.721Z,3788
2017-06-24T12:24:03.621Z,4692
2017-06-24T12:25:12.836Z,4604
2017-06-24T12:26:22.051Z,4924
2017-06-24T12:27:31.141Z,3552
2017-06-24T12:28:40.029Z,5208
2017-06-24T12:29:48.920Z,3048
2017-06-24T12:30:58.170Z,2448
2017-06-24T12:32:07.072Z,3124
2017-06-24T12:33:16.761Z,3920
2017-06-24T12:34:25.653Z,3328
2017-06-24T12:35:34.548Z,2964
2017-06-24T12:36:43.444Z,3356
2017-06-24T12:37:52.348Z,3696
2017-06-24T12:39:01.716Z,3064
2017-06-24T12:40:11.582Z,4084
2017-06-24T12:41:20.474Z,2824
2017-06-24T12:42:29.369Z,3088
2017-06-24T12:43:38.581Z,3092
2017-06-24T12:44:47.525Z,3580
2017-06-24T12:45:56.414Z,3204
2017-06-24T12:47:05.314Z,3804
2017-06-24T12:48:14.530Z,2740
2017-06-24T12:49:23.421Z,2940
2017-06-24T12:50:32.314Z,2960
2017-06-24T12:51:41.529Z,2364
2017-06-24T12:52:50.419Z,3028
2017-06-24T12:53:59.313Z,2704
2017-06-24T12:55:08.204Z,2704
2017-06-24T12:56:17.469Z,2340
2017-06-24T12:57:26.358Z,2804
2017-06-24T12:58:35.574Z,2556
2017-06-24T12:59:44.464Z,3084
2017-06-24T13:00:53.358Z,3640
2017-06-24T13:02:02.294Z,2704
2017-06-24T13:03:11.193Z,2332
2017-06-24T13:04:20.088Z,2164
2017-06-24T13:05:28.981Z,2652
2017-06-24T13:06:37.869Z,2880
2017-06-24T13:07:47.382Z,3808
2017-06-24T13:08:56.289Z,4972
2017-06-24T13:10:05.503Z,4464
2017-06-24T13:11:14.400Z,6396
2017-06-24T13:12:23.616Z,6236
2017-06-24T13:13:32.555Z,6016
2017-06-24T13:14:41.453Z,5468
2017-06-24T13:15:50.345Z,4008
2017-06-24T13:16:59.235Z,3360
2017-06-24T13:18:08.132Z,2908
2017-06-24T13:19:17.449Z,2524
2017-06-24T13:20:26.337Z,2192
2017-06-24T13:21:35.560Z,3240
2017-06-24T13:22:44.463Z,3540
2017-06-24T13:23:53.355Z,3540
2017-06-24T13:25:02.243Z,3680
2017-06-24T13:26:11.131Z,4040
2017-06-24T13:27:20.349Z,4688
2017-06-24T13:28:29.886Z,4540
2017-06-24T13:29:38.772Z,5220
2017-06-24T13:30:48.066Z,4044
2017-06-24T13:31:56.968Z,5548
2017-06-24T13:33:06.190Z,4556
2017-06-24T13:34:15.078Z,4136
2017-06-24T13:35:23.968Z,4144
2017-06-24T13:36:33.337Z,3856
2017-06-24T13:37:42.228Z,6288
2017-06-24T13:38:51.120Z,4928
2017-06-24T13:40:00.012Z,4056
2017-06-24T13:41:09.227Z,5272
2017-06-24T13:42:18.501Z,3868
2017-06-24T13:43:27.724Z,4140
2017-06-24T13:44:36.616Z,4048
2017-06-24T13:45:45.825Z,4976
2017-06-24T13:46:54.724Z,5868
2017-06-24T13:48:03.676Z,4172
2017-06-24T13:49:12.561Z,4536
2017-06-24T13:50:21.775Z,4504
2017-06-24T13:51:30.670Z,5168
2017-06-24T13:52:39.895Z,4104
2017-06-24T13:53:49.163Z,4896
2017-06-24T13:54:58.380Z,3268
2017-06-24T13:56:07.595Z,3064
2017-06-24T13:57:16.495Z,3992
2017-06-24T13:58:25.389Z,4348
2017-06-24T13:59:34.483Z,3312
2017-06-24T14:00:43.378Z,3264
2017-06-24T14:01:52.266Z,3076
2017-06-24T14:03:01.162Z,3220
2017-06-24T14:04:10.384Z,3084
2017-06-24T14:05:19.583Z,2652
2017-06-24T14:06:28.804Z,2280
2017-06-24T14:07:38.028Z,3856
2017-06-24T14:08:47.244Z,4396
2017-06-24T14:09:56.133Z,4256
2017-06-24T14:11:05.599Z,5296
2017-06-24T14:12:14.499Z,6328
2017-06-24T14:13:23.716Z,6060
2017-06-24T14:14:32.935Z,8344
2017-06-24T14:15:42.172Z,7300
2017-06-24T14:16:51.211Z,5048
2017-06-24T14:18:00.108Z,4504
2017-06-24T14:19:09.321Z,5332
2017-06-24T14:20:18.545Z,4300
2017-06-24T14:21:27.438Z,3208
2017-06-24T14:22:36.626Z,1348
2017-06-24T14:23:45.842Z,3072
2017-06-24T14:24:54.745Z,3156
2017-06-24T14:26:03.961Z,3376
2017-06-24T14:27:12.852Z,4648
2017-06-24T14:28:22.220Z,3876
2017-06-24T14:29:31.439Z,3816
2017-06-24T14:30:40.336Z,3420
2017-06-24T14:31:49.230Z,2276
2017-06-24T14:32:58.446Z,2128
2017-06-24T14:34:07.670Z,3112
2017-06-24T14:35:16.888Z,2860
2017-06-24T14:36:26.109Z,2404
2017-06-24T14:37:35.006Z,1688
2017-06-24T14:38:43.896Z,1532
2017-06-24T14:39:52.986Z,1492
2017-06-24T14:41:01.878Z,1156
2017-06-24T14:42:10.777Z,1248
2017-06-24T14:43:19.668Z,908
2017-06-24T14:44:28.887Z,740
2017-06-24T14:45:37.839Z,1064
2017-06-24T14:46:47.375Z,1472
2017-06-24T14:47:56.267Z,768
2017-06-24T14:49:05.159Z,676
2017-06-24T14:50:14.697Z,440
2017-06-24T14:51:23.692Z,548
2017-06-24T14:52:32.906Z,688
2017-06-24T14:53:41.802Z,1608
2017-06-24T14:54:50.688Z,2876
2017-06-24T14:55:59.582Z,2420
2017-06-24T14:57:08.946Z,2520
2017-06-24T14:58:18.159Z,2488
2017-06-24T14:59:27.046Z,3284
2017-06-24T15:00:35.938Z,3952
2017-06-24T15:01:44.825Z,5164
2017-06-24T15:02:53.711Z,3732
2017-06-24T15:04:02.612Z,1496
2017-06-24T15:05:11.509Z,2272
2017-06-24T15:06:21.048Z,3712
2017-06-24T15:07:30.267Z,3364
2017-06-24T15:08:39.260Z,3800
2017-06-24T15:09:48.156Z,3668
2017-06-24T15:10:57.043Z,3304
2017-06-24T15:12:06.605Z,2504
2017-06-24T15:13:15.495Z,2292
2017-06-24T15:14:24.536Z,2356
2017-06-24T15:15:33.750Z,1912
2017-06-24T15:16:42.969Z,1248
2017-06-24T15:17:51.860Z,1208
2017-06-24T15:19:01.076Z,3276
2017-06-24T15:20:10.121Z,7064
2017-06-24T15:21:19.009Z,9344
2017-06-24T15:22:27.900Z,10712
2017-06-24T15:23:36.794Z,9560
2017-06-24T15:24:45.687Z,9060
2017-06-24T15:25:54.903Z,10840
2017-06-24T15:27:03.787Z,15180
2017-06-24T15:28:12.679Z,14896
2017-06-24T15:29:21.569Z,15032
2017-06-24T15:30:30.790Z,13868
2017-06-24T15:31:39.685Z,8252
2017-06-24T15:32:48.900Z,6148
2017-06-24T15:33:57.789Z,6000
2017-06-24T15:35:06.683Z,5644
2017-06-24T15:36:15.927Z,5476
2017-06-24T15:37:24.977Z,5636
2017-06-24T15:38:33.874Z,8748
2017-06-24T15:39:42.770Z,9340
2017-06-24T15:40:51.665Z,9836
2017-06-24T15:42:00.560Z,10448
2017-06-24T15:43:09.451Z,10088
2017-06-24T15:44:18.666Z,8984
2017-06-24T15:45:27.567Z,7824
2017-06-24T15:46:36.784Z,7796